Time;durP1;ratioP1;P1;durP2;ratioP2;P2;SDS_P1;SDS_P2;PMS_P1;PMS_P2;Temp;Humidity;BMP_temperature;BMP_pressure;BME280_temperature;BME280_humidity;BME280_pressure;Samples;Min_cycle;Max_cycle;Signal;HPM_P1;HPM_P2
2021/10/11 00:02:21;;;;;;;15.13;13.27;;;9.80;99.90;;;;;;6225352;28;20487;-64
2021/10/11 00:05:25;;;;;;;16.37;12.50;;;9.80;99.90;;;;;;6225251;28;20969;-64
2021/10/11 00:08:28;;;;;;;13.73;11.80;;;9.80;99.90;;;;;;6225489;28;20471;-64
2021/10/11 00:11:31;;;;;;;15.73;11.90;;;9.80;99.90;;;;;;6225901;28;20999;-64
2021/10/11 00:14:34;;;;;;;12.37;11.23;;;9.80;99.90;;;;;;6225965;28;20483;-64
2021/10/11 00:17:39;;;;;;;13.27;11.87;;;9.80;99.90;;;;;;6226406;28;20533;-63
2021/10/11 00:20:42;;;;;;;15.00;12.20;;;9.90;99.90;;;;;;6226039;28;20476;-64
2021/10/11 00:23:45;;;;;;;12.30;11.00;;;9.90;99.90;;;;;;6226141;28;20471;-64
2021/10/11 00:26:48;;;;;;;13.80;10.77;;;9.90;99.90;;;;;;6225797;28;20480;-63
2021/10/11 00:29:52;;;;;;;13.17;11.10;;;9.80;99.90;;;;;;6225784;28;20464;-61
2021/10/11 00:32:56;;;;;;;14.40;12.20;;;9.90;99.90;;;;;;6225669;28;20480;-62
2021/10/11 00:35:59;;;;;;;12.70;11.30;;;9.90;99.90;;;;;;6225869;28;20480;-63
2021/10/11 00:39:02;;;;;;;15.57;11.23;;;9.80;99.90;;;;;;6226313;28;20475;-63
2021/10/11 00:42:05;;;;;;;11.87;9.77;;;9.80;99.90;;;;;;6226451;28;20842;-63
2021/10/11 00:45:09;;;;;;;14.73;10.87;;;9.80;99.90;;;;;;6225937;28;20951;-63
2021/10/11 00:48:13;;;;;;;11.17;10.07;;;9.80;99.90;;;;;;6225409;28;20943;-63
2021/10/11 00:51:17;;;;;;;12.13;9.97;;;9.80;99.90;;;;;;6221141;28;20479;-63
2021/10/11 00:54:20;;;;;;;14.50;10.10;;;9.80;99.90;;;;;;6225823;28;20475;-63
2021/10/11 00:57:23;;;;;;;11.83;9.50;;;9.70;99.90;;;;;;6225539;28;20472;-63
2021/10/11 01:00:26;;;;;;;9.60;8.60;;;9.70;99.90;;;;;;6225212;28;20486;-64
2021/10/11 01:03:31;;;;;;;10.50;9.50;;;9.70;99.90;;;;;;6225095;28;20859;-63
2021/10/11 01:06:37;;;;;;;10.80;9.77;;;9.80;99.90;;;;;;6225633;28;20468;-63
2021/10/11 01:09:40;;;;;;;10.47;9.40;;;9.80;99.90;;;;;;6225730;28;20476;-64
2021/10/11 01:12:43;;;;;;;13.03;9.47;;;9.70;99.90;;;;;;6225076;28;20488;-64
2021/10/11 01:15:47;;;;;;;9.70;8.73;;;9.80;99.90;;;;;;6225205;28;20486;-63
2021/10/11 01:18:51;;;;;;;13.20;9.40;;;9.80;99.90;;;;;;6225068;28;20771;-63
2021/10/11 01:21:56;;;;;;;13.73;11.37;;;9.80;99.90;;;;;;6225362;28;20476;-63
2021/10/11 01:24:59;;;;;;;12.40;10.20;;;9.80;99.90;;;;;;6225182;28;20472;-63
2021/10/11 01:28:02;;;;;;;10.77;9.67;;;9.80;99.90;;;;;;6225204;28;20551;-63
2021/10/11 01:31:05;;;;;;;9.70;8.50;;;9.90;99.90;;;;;;6224451;28;21031;-63
2021/10/11 01:34:09;;;;;;;8.73;7.73;;;9.80;99.90;;;;;;6225403;28;20472;-63
2021/10/11 01:37:14;;;;;;;9.70;8.80;;;9.80;99.90;;;;;;6224844;28;20483;-63
2021/10/11 01:40:19;;;;;;;10.40;9.40;;;9.80;99.90;;;;;;6225166;28;20543;-63
2021/10/11 01:43:22;;;;;;;10.07;9.07;;;9.80;99.90;;;;;;6229018;28;20555;-63
2021/10/11 01:46:25;;;;;;;9.80;8.80;;;9.80;99.90;;;;;;6229585;28;20467;-63
2021/10/11 01:49:28;;;;;;;10.00;9.00;;;9.80;99.90;;;;;;6229182;28;20479;-63
2021/10/11 01:52:34;;;;;;;10.10;9.20;;;9.80;99.90;;;;;;6229484;28;20476;-63
2021/10/11 01:55:37;;;;;;;10.10;9.10;;;9.80;99.90;;;;;;6228766;28;20475;-63
2021/10/11 01:58:40;;;;;;;9.80;8.80;;;9.90;99.90;;;;;;6228971;28;20844;-63
2021/10/11 02:01:43;;;;;;;11.80;9.60;;;9.90;99.90;;;;;;6228507;28;20483;-63
2021/10/11 02:04:46;;;;;;;10.10;8.77;;;9.80;99.90;;;;;;6228958;28;20444;-63
2021/10/11 02:07:51;;;;;;;10.27;9.23;;;9.80;99.90;;;;;;6228684;28;20908;-63
2021/10/11 02:10:54;;;;;;;12.57;9.17;;;9.80;99.90;;;;;;6229396;28;20480;-63
2021/10/11 02:13:57;;;;;;;11.33;10.00;;;9.80;99.90;;;;;;6228831;28;20420;-63
2021/10/11 02:17:00;;;;;;;10.00;8.93;;;9.80;99.90;;;;;;6228800;28;20451;-63
2021/10/11 02:20:05;;;;;;;13.97;9.27;;;9.80;99.90;;;;;;6229458;28;20435;-63
2021/10/11 02:23:10;;;;;;;10.67;8.80;;;9.80;99.90;;;;;;6228641;28;20460;-63
2021/10/11 02:26:13;;;;;;;14.03;8.57;;;9.80;99.90;;;;;;6228772;28;21014;-64
2021/10/11 02:29:16;;;;;;;10.13;8.67;;;9.90;99.90;;;;;;6228574;28;20487;-62
2021/10/11 02:32:19;;;;;;;10.00;8.00;;;9.90;99.90;;;;;;6227928;28;20468;-62
2021/10/11 02:35:22;;;;;;;11.23;8.77;;;9.90;99.90;;;;;;6229285;28;20533;-63
2021/10/11 02:38:27;;;;;;;10.07;9.10;;;9.90;99.90;;;;;;6228107;28;20778;-63
2021/10/11 02:41:30;;;;;;;7.83;7.13;;;9.90;99.90;;;;;;6228052;28;20475;-63
2021/10/11 02:44:33;;;;;;;8.23;7.00;;;10.00;99.90;;;;;;6227888;28;20476;-63
2021/10/11 02:47:36;;;;;;;8.63;7.73;;;9.90;99.90;;;;;;6228071;28;20476;-63
2021/10/11 02:50:39;;;;;;;8.13;7.33;;;9.90;99.90;;;;;;6228301;28;20478;-63
2021/10/11 02:53:48;;;;;;;11.33;8.07;;;10.00;99.90;;;;;;6227223;28;20484;-62
2021/10/11 02:56:52;;;;;;;9.63;8.60;;;10.10;99.90;;;;;;6229278;28;20863;-62
2021/10/11 02:59:55;;;;;;;10.63;7.60;;;10.10;99.90;;;;;;6220423;28;20970;-62
2021/10/11 03:02:58;;;;;;;8.47;7.10;;;10.10;99.90;;;;;;6227962;28;20506;-62
2021/10/11 03:06:01;;;;;;;8.30;7.50;;;10.10;99.90;;;;;;6227201;28;20789;-64
2021/10/11 03:09:06;;;;;;;8.37;7.07;;;10.10;99.90;;;;;;6227314;28;20530;-63
2021/10/11 03:12:09;;;;;;;10.63;8.27;;;10.10;99.90;;;;;;6226929;28;20475;-63
2021/10/11 03:15:12;;;;;;;7.77;7.03;;;10.10;99.90;;;;;;6227259;28;20796;-64
2021/10/11 03:18:15;;;;;;;10.47;7.20;;;10.10;99.90;;;;;;6227698;28;20479;-63
2021/10/11 03:21:21;;;;;;;9.40;7.40;;;10.10;99.90;;;;;;6227247;28;20486;-63
2021/10/11 03:24:25;;;;;;;10.60;7.30;;;10.20;99.90;;;;;;6227352;28;20483;-63
2021/10/11 03:27:28;;;;;;;8.17;7.23;;;10.10;99.90;;;;;;6227492;28;20479;-62
2021/10/11 03:30:32;;;;;;;8.77;7.70;;;10.20;99.90;;;;;;6227093;28;20511;-63
2021/10/11 03:33:35;;;;;;;7.47;6.70;;;10.10;99.90;;;;;;6227119;28;20464;-63
2021/10/11 03:36:39;;;;;;;7.93;7.10;;;10.20;99.90;;;;;;6227230;28;20468;-63
2021/10/11 03:39:44;;;;;;;9.47;8.17;;;10.20;99.90;;;;;;6226785;28;20534;-63
2021/10/11 03:42:47;;;;;;;12.80;8.70;;;10.30;99.90;;;;;;6226840;28;20472;-64
2021/10/11 03:45:50;;;;;;;9.93;8.20;;;10.30;99.90;;;;;;6226850;28;20956;-64
2021/10/11 03:48:53;;;;;;;9.10;8.07;;;10.30;99.90;;;;;;6226702;28;20798;-64
2021/10/11 03:51:56;;;;;;;8.17;7.37;;;10.30;99.90;;;;;;6226570;28;20487;-63
2021/10/11 03:55:01;;;;;;;8.10;7.20;;;10.30;99.90;;;;;;6226703;28;20815;-64
2021/10/11 03:58:04;;;;;;;11.17;8.00;;;10.30;99.90;;;;;;6226709;28;20555;-64
2021/10/11 04:01:07;;;;;;;8.50;7.40;;;10.30;99.90;;;;;;6225957;28;20991;-63
2021/10/11 04:04:12;;;;;;;9.13;8.23;;;10.30;99.90;;;;;;6221652;28;20550;-64
2021/10/11 04:07:17;;;;;;;8.07;7.27;;;10.30;99.90;;;;;;6225764;28;20467;-63
2021/10/11 04:10:27;;;;;;;8.70;7.33;;;10.30;99.90;;;;;;6226166;28;20986;-63
2021/10/11 04:13:30;;;;;;;12.83;8.07;;;10.40;99.90;;;;;;6226074;28;20464;-62
2021/10/11 04:16:33;;;;;;;8.33;7.43;;;10.40;99.90;;;;;;6226157;28;20474;-63
2021/10/11 04:19:36;;;;;;;7.33;6.60;;;10.50;99.90;;;;;;6225892;28;20479;-62
2021/10/11 04:22:39;;;;;;;9.80;8.20;;;10.50;99.90;;;;;;6226007;28;20487;-63
2021/10/11 04:25:44;;;;;;;10.17;7.90;;;10.50;99.90;;;;;;6225552;28;20488;-62
2021/10/11 04:28:47;;;;;;;8.57;7.60;;;10.50;99.90;;;;;;6226205;28;20472;-62
2021/10/11 04:31:50;;;;;;;9.10;7.87;;;10.60;99.90;;;;;;6225744;28;20462;-62
2021/10/11 04:34:53;;;;;;;7.93;7.07;;;10.60;99.90;;;;;;6226307;28;20444;-62
2021/10/11 04:37:56;;;;;;;9.70;6.80;;;10.60;99.90;;;;;;6225475;28;20448;-62
2021/10/11 04:41:01;;;;;;;10.00;8.07;;;10.70;99.90;;;;;;6225233;28;20950;-63
2021/10/11 04:44:05;;;;;;;9.70;8.37;;;10.70;99.60;;;;;;6225739;28;20606;-63
2021/10/11 04:47:08;;;;;;;9.33;8.17;;;10.70;99.50;;;;;;6225050;28;20926;-64
2021/10/11 04:50:11;;;;;;;9.00;8.13;;;10.70;99.60;;;;;;6225055;28;20475;-64
2021/10/11 04:53:14;;;;;;;8.47;7.57;;;10.70;99.70;;;;;;6224299;28;20467;-63
2021/10/11 04:56:19;;;;;;;9.97;8.00;;;10.70;99.80;;;;;;6224744;28;20791;-63
2021/10/11 04:59:22;;;;;;;11.57;7.63;;;10.70;99.90;;;;;;6224610;28;20471;-63
2021/10/11 05:02:25;;;;;;;12.03;8.63;;;10.70;99.90;;;;;;6225268;28;20476;-62
2021/10/11 05:05:28;;;;;;;12.73;7.83;;;10.70;99.90;;;;;;6221158;28;20472;-63
2021/10/11 05:08:31;;;;;;;8.83;7.40;;;10.70;99.90;;;;;;6225132;28;20479;-63
2021/10/11 05:11:36;;;;;;;9.07;8.17;;;10.70;99.90;;;;;;6224704;28;20479;-63
2021/10/11 05:14:39;;;;;;;10.10;7.97;;;10.70;99.90;;;;;;6223411;28;20490;-63
2021/10/11 05:17:42;;;;;;;8.43;7.60;;;10.70;99.90;;;;;;6228926;28;20467;-62
2021/10/11 05:20:49;;;;;;;8.27;7.10;;;10.70;99.90;;;;;;6229926;28;20812;-63
2021/10/11 05:23:52;;;;;;;8.53;7.83;;;10.70;99.90;;;;;;6230651;28;20479;-62
2021/10/11 05:26:57;;;;;;;9.27;8.37;;;10.70;99.90;;;;;;6228334;28;20789;-63
2021/10/11 05:30:00;;;;;;;9.97;7.90;;;10.70;99.90;;;;;;6228292;28;20551;-64
2021/10/11 05:33:03;;;;;;;12.43;8.40;;;10.70;99.90;;;;;;6228363;28;20475;-64
2021/10/11 05:36:08;;;;;;;8.80;7.83;;;10.70;99.90;;;;;;6228354;28;20468;-63
2021/10/11 05:39:11;;;;;;;13.20;8.80;;;10.70;99.90;;;;;;6228274;28;20821;-63
2021/10/11 05:42:15;;;;;;;9.93;8.33;;;10.70;99.90;;;;;;6229357;28;20494;-63
2021/10/11 05:45:19;;;;;;;12.03;8.50;;;10.80;99.90;;;;;;6229589;28;20476;-63
2021/10/11 05:48:22;;;;;;;8.77;7.83;;;10.80;99.90;;;;;;6229800;28;20479;-64
2021/10/11 05:51:25;;;;;;;10.60;8.53;;;10.90;99.90;;;;;;6229569;28;20869;-64
2021/10/11 05:54:28;;;;;;;10.10;8.20;;;10.80;99.90;;;;;;6229306;28;20463;-64
2021/10/11 05:57:33;;;;;;;9.40;8.33;;;10.80;99.90;;;;;;6229092;28;20815;-63
2021/10/11 06:00:36;;;;;;;14.27;9.03;;;10.90;99.90;;;;;;6228694;28;20979;-64
2021/10/11 06:03:40;;;;;;;8.90;7.93;;;10.80;99.90;;;;;;6229051;28;21034;-63
2021/10/11 06:06:43;;;;;;;9.47;7.87;;;10.80;99.90;;;;;;6229458;28;20483;-63
2021/10/11 06:09:46;;;;;;;11.83;9.70;;;10.80;99.90;;;;;;6229401;28;20483;-63
2021/10/11 06:12:51;;;;;;;9.47;8.40;;;10.80;99.90;;;;;;6220060;28;20484;-63
2021/10/11 06:15:54;;;;;;;8.77;7.83;;;10.80;99.90;;;;;;6228875;28;20820;-63
2021/10/11 06:18:57;;;;;;;10.00;8.80;;;10.90;99.90;;;;;;6229288;28;20468;-62
2021/10/11 06:22:01;;;;;;;9.23;8.40;;;10.90;99.90;;;;;;6229001;28;20480;-63
2021/10/11 06:25:05;;;;;;;10.87;9.70;;;10.90;99.90;;;;;;6229619;28;20483;-62
2021/10/11 06:28:11;;;;;;;10.03;9.00;;;11.00;99.90;;;;;;6228486;28;20471;-62
2021/10/11 06:31:15;;;;;;;13.93;10.93;;;11.00;99.90;;;;;;6229408;28;20476;-63
2021/10/11 06:34:18;;;;;;;10.43;9.40;;;10.90;99.90;;;;;;6230094;28;20542;-62
2021/10/11 06:37:21;;;;;;;13.70;8.87;;;10.90;99.90;;;;;;6230191;28;20487;-62
2021/10/11 06:40:25;;;;;;;12.67;10.23;;;10.90;99.90;;;;;;6230063;28;20483;-63
2021/10/11 06:43:34;;;;;;;11.77;9.40;;;10.90;99.90;;;;;;6228918;28;20468;-63
2021/10/11 06:46:38;;;;;;;12.13;10.83;;;10.90;99.90;;;;;;6229419;28;20991;-64
2021/10/11 06:49:42;;;;;;;11.07;9.27;;;10.90;99.90;;;;;;6230092;28;20492;-63
2021/10/11 06:52:45;;;;;;;9.27;8.40;;;10.90;99.90;;;;;;6231387;28;20488;-63
2021/10/11 06:55:49;;;;;;;10.00;8.47;;;10.90;99.90;;;;;;6231520;28;20452;-64
2021/10/11 06:58:54;;;;;;;9.13;8.23;;;11.00;99.90;;;;;;6232374;28;20898;-63
2021/10/11 07:01:57;;;;;;;12.67;8.20;;;11.10;99.90;;;;;;6232720;28;20464;-63
2021/10/11 07:05:20;;;;;;;19.63;14.37;;;11.10;99.90;;;;;;6231680;28;20814;-64
2021/10/11 07:08:25;;;;;;;13.90;8.77;;;11.20;99.90;;;;;;6229964;28;20809;-63
2021/10/11 07:11:28;;;;;;;7.80;7.10;;;11.20;99.90;;;;;;6228940;28;20486;-64
2021/10/11 07:14:33;;;;;;;8.33;6.90;;;11.20;99.90;;;;;;6219715;28;20480;-63
2021/10/11 07:17:36;;;;;;;9.60;8.70;;;11.30;99.90;;;;;;6229222;28;20479;-64
2021/10/11 07:20:43;;;;;;;7.43;6.73;;;11.30;99.90;;;;;;6229834;28;20483;-64
2021/10/11 07:23:46;;;;;;;9.40;6.73;;;11.30;99.90;;;;;;6228774;28;20487;-64
2021/10/11 07:26:49;;;;;;;8.40;7.60;;;11.40;99.90;;;;;;6226976;28;20468;-63
2021/10/11 07:29:53;;;;;;;8.03;6.07;;;11.40;99.40;;;;;;6226923;28;20788;-63
2021/10/11 07:32:57;;;;;;;7.13;6.43;;;11.50;99.30;;;;;;6226752;28;20843;-63
2021/10/11 07:36:00;;;;;;;8.80;7.90;;;11.50;99.80;;;;;;6228317;28;20479;-65
2021/10/11 07:39:04;;;;;;;7.97;7.17;;;11.50;99.90;;;;;;6235669;28;20471;-67
2021/10/11 07:42:07;;;;;;;7.97;6.97;;;11.60;99.90;;;;;;6248334;28;20482;-65
2021/10/11 07:45:12;;;;;;;7.73;6.43;;;11.60;99.90;;;;;;6238837;28;20533;-65
2021/10/11 07:48:15;;;;;;;7.93;6.90;;;11.50;99.90;;;;;;6226687;28;20472;-64
2021/10/11 07:51:18;;;;;;;10.13;7.13;;;11.60;99.90;;;;;;6226462;28;20606;-64
2021/10/11 07:54:21;;;;;;;10.40;7.67;;;11.60;99.90;;;;;;6243558;28;20478;-65
2021/10/11 07:57:25;;;;;;;6.80;6.20;;;11.70;99.90;;;;;;6251499;28;20470;-72
2021/10/11 08:00:29;;;;;;;8.30;7.30;;;11.80;99.90;;;;;;6251019;28;20483;-64
2021/10/11 08:03:32;;;;;;;8.33;6.00;;;11.80;99.90;;;;;;6250694;28;20486;-65
2021/10/11 08:06:36;;;;;;;9.80;7.40;;;11.80;99.90;;;;;;6251908;28;20536;-66
2021/10/11 08:09:39;;;;;;;9.70;7.30;;;11.80;99.90;;;;;;6248671;28;20563;-65
2021/10/11 08:12:42;;;;;;;9.17;7.20;;;11.90;99.90;;;;;;6225972;28;20483;-63
2021/10/11 08:15:47;;;;;;;11.80;7.90;;;11.90;99.90;;;;;;6225746;28;20861;-64
2021/10/11 08:18:50;;;;;;;8.87;7.73;;;12.00;99.90;;;;;;6221606;28;20924;-65
2021/10/11 08:21:53;;;;;;;10.00;8.17;;;11.90;99.90;;;;;;6225687;28;20971;-65
2021/10/11 08:24:57;;;;;;;10.07;9.17;;;12.00;99.90;;;;;;6226135;28;20487;-65
2021/10/11 08:28:00;;;;;;;12.07;8.50;;;11.90;99.90;;;;;;6226112;28;20483;-64
2021/10/11 08:31:04;;;;;;;9.80;8.73;;;11.90;99.90;;;;;;6262344;28;20474;-65
2021/10/11 08:34:08;;;;;;;12.00;8.67;;;12.00;99.90;;;;;;6274804;28;20462;-64
2021/10/11 08:37:11;;;;;;;11.10;9.83;;;12.10;99.90;;;;;;6258170;28;20786;-64
2021/10/11 08:40:14;;;;;;;9.90;8.87;;;12.10;99.90;;;;;;6250067;28;20542;-65
2021/10/11 08:43:18;;;;;;;12.63;10.00;;;12.00;99.90;;;;;;6249540;28;20548;-65
2021/10/11 08:46:23;;;;;;;11.87;9.90;;;12.10;99.90;;;;;;6226017;28;20475;-65
2021/10/11 08:49:27;;;;;;;13.10;10.20;;;12.20;99.90;;;;;;6225688;28;20994;-65
2021/10/11 08:52:30;;;;;;;14.23;11.47;;;12.20;99.90;;;;;;6226105;28;20479;-66
2021/10/11 08:55:33;;;;;;;14.23;9.63;;;12.00;99.90;;;;;;6226705;28;20468;-64
2021/10/11 08:58:44;;;;;;;12.27;8.80;;;11.90;99.90;;;;;;6226646;28;20479;-65
2021/10/11 09:01:49;;;;;;;10.90;8.83;;;11.80;99.90;;;;;;6225268;28;20480;-65
2021/10/11 09:04:56;;;;;;;11.30;10.17;;;11.50;99.90;;;;;;6225304;28;20459;-65
2021/10/11 09:08:02;;;;;;;13.50;10.10;;;11.50;99.90;;;;;;6225435;28;20770;-63
2021/10/11 09:11:07;;;;;;;18.20;10.97;;;11.70;99.90;;;;;;6239731;28;20558;-64
2021/10/11 09:14:21;;;;;;;11.83;10.00;;;11.90;99.90;;;;;;6250565;28;20465;-64
2021/10/11 09:17:30;;;;;;;17.03;11.10;;;12.10;99.90;;;;;;6249684;28;20471;-64
2021/10/11 09:20:36;;;;;;;17.33;11.00;;;12.30;99.90;;;;;;6249424;28;20475;-66
2021/10/11 09:23:40;;;;;;;12.60;10.20;;;12.50;99.90;;;;;;6249028;28;20475;-64
2021/10/11 09:26:45;;;;;;;11.63;10.37;;;12.70;99.90;;;;;;6249613;28;20478;-65
2021/10/11 09:29:48;;;;;;;11.10;10.00;;;12.90;99.90;;;;;;6248666;28;20788;-65
2021/10/11 09:33:07;;;;;;;11.87;9.47;;;13.00;99.90;;;;;;6249777;28;20478;-63
2021/10/11 09:36:19;;;;;;;13.67;10.77;;;13.20;99.90;;;;;;6243635;28;20468;-63
2021/10/11 09:39:24;;;;;;;11.20;10.10;;;13.00;99.90;;;;;;6248295;28;20484;-63
2021/10/11 09:42:30;;;;;;;12.43;10.60;;;13.30;99.90;;;;;;6249522;28;20490;-65
2021/10/11 09:45:34;;;;;;;10.93;9.13;;;13.50;99.90;;;;;;6231980;28;20853;-64
2021/10/11 09:48:49;;;;;;;12.23;9.70;;;13.80;99.90;;;;;;6224821;28;20580;-63
2021/10/11 09:51:53;;;;;;;10.53;9.43;;;14.10;99.90;;;;;;6224639;28;20483;-65
2021/10/11 09:54:57;;;;;;;14.30;10.83;;;14.30;99.90;;;;;;6224877;28;20482;-63
2021/10/11 09:58:00;;;;;;;10.37;9.23;;;14.30;99.90;;;;;;6225470;28;20472;-63
2021/10/11 10:01:04;;;;;;;14.03;9.73;;;14.40;99.80;;;;;;6224825;28;20476;-64
2021/10/11 10:04:12;;;;;;;11.27;9.90;;;14.50;99.40;;;;;;6228536;28;20613;-65
2021/10/11 10:07:17;;;;;;;9.73;8.83;;;14.60;99.70;;;;;;6229102;28;20530;-63
2021/10/11 10:10:22;;;;;;;14.23;8.80;;;14.80;98.80;;;;;;6229297;28;20476;-64
2021/10/11 10:13:25;;;;;;;11.60;9.60;;;15.00;98.40;;;;;;6229370;28;20952;-64
2021/10/11 10:16:32;;;;;;;11.63;8.70;;;15.30;98.20;;;;;;6229803;28;20490;-64
2021/10/11 10:19:38;;;;;;;11.10;9.10;;;15.30;97.00;;;;;;6260127;28;20762;-64
2021/10/11 10:22:51;;;;;;;10.53;8.77;;;15.40;96.80;;;;;;6278629;28;20516;-64
2021/10/11 10:25:55;;;;;;;10.40;8.40;;;15.60;96.80;;;;;;6273448;28;20474;-62
2021/10/11 10:29:00;;;;;;;10.13;8.83;;;15.80;96.80;;;;;;6278130;28;20833;-63
2021/10/11 10:32:07;;;;;;;10.17;9.07;;;16.00;96.40;;;;;;6278919;28;20473;-64
2021/10/11 10:35:18;;;;;;;9.60;8.70;;;16.30;95.30;;;;;;6279017;28;20930;-64
2021/10/11 10:38:24;;;;;;;10.80;9.40;;;16.30;95.00;;;;;;6268648;28;20966;-65
2021/10/11 10:41:27;;;;;;;12.67;9.20;;;16.70;94.50;;;;;;6277358;28;20466;-64
2021/10/11 10:44:30;;;;;;;11.70;9.17;;;16.80;93.70;;;;;;6268715;28;20463;-64
2021/10/11 10:47:35;;;;;;;11.83;8.60;;;17.10;92.80;;;;;;6252982;28;20471;-64
2021/10/11 10:50:40;;;;;;;9.20;8.30;;;17.20;92.40;;;;;;6262599;28;20813;-64
2021/10/11 10:53:54;;;;;;;9.23;8.27;;;17.70;92.30;;;;;;6277476;28;20481;-64
2021/10/11 10:56:57;;;;;;;10.63;7.77;;;18.30;90.40;;;;;;6277318;28;20846;-65
2021/10/11 11:00:10;;;;;;;9.17;8.27;;;18.70;87.30;;;;;;6275653;28;20486;-66
2021/10/11 11:03:15;;;;;;;8.50;7.53;;;18.70;84.70;;;;;;6273378;28;20573;-66
2021/10/11 11:06:29;;;;;;;11.27;9.50;;;18.80;83.50;;;;;;6276471;28;20501;-66
2021/10/11 11:09:43;;;;;;;9.60;8.70;;;18.70;82.30;;;;;;6254101;28;20482;-65
2021/10/11 11:12:51;;;;;;;10.90;9.07;;;18.60;82.20;;;;;;6251952;28;20228;-64
2021/10/11 11:15:54;;;;;;;10.57;9.47;;;18.60;82.80;;;;;;6253416;28;20298;-64
2021/10/11 11:18:59;;;;;;;9.73;8.47;;;18.60;82.20;;;;;;6250682;28;20486;-64
2021/10/11 11:22:04;;;;;;;10.83;9.10;;;19.90;81.50;;;;;;6250504;28;20247;-63
2021/10/11 11:25:07;;;;;;;11.53;9.20;;;23.70;70.10;;;;;;6250370;28;20247;-65
2021/10/11 11:28:12;;;;;;;10.50;9.40;;;28.30;54.90;;;;;;6250166;28;20239;-65
2021/10/11 11:31:16;;;;;;;10.30;9.30;;;30.60;45.20;;;;;;6250737;28;20247;-65
2021/10/11 11:34:20;;;;;;;11.77;9.50;;;33.30;38.60;;;;;;6251472;28;20627;-65
2021/10/11 11:37:24;;;;;;;11.05;10.15;;;35.00;33.40;;;;;;6242238;28;20250;-65
2021/10/11 11:40:31;;;;;;;11.75;10.32;;;35.00;31.50;;;;;;6251088;28;20242;-65
2021/10/11 11:43:36;;;;;;;10.45;9.18;;;33.90;31.10;;;;;;6250727;28;20227;-64
2021/10/11 11:46:39;;;;;;;10.18;9.00;;;32.80;31.60;;;;;;6251285;28;20672;-63
2021/10/11 11:49:42;;;;;;;11.43;9.30;;;31.90;33.40;;;;;;6251209;28;20224;-63
2021/10/11 11:52:51;;;;;;;11.05;9.25;;;31.90;32.60;;;;;;6250945;28;20235;-64
2021/10/11 11:55:56;;;;;;;10.40;8.82;;;32.60;31.80;;;;;;6250552;28;20208;-64
2021/10/11 11:59:00;;;;;;;9.70;8.85;;;34.20;30.10;;;;;;6250981;28;20204;-66
2021/10/11 12:02:04;;;;;;;8.52;7.93;;;36.70;28.00;;;;;;6251104;28;20232;-66
2021/10/11 12:05:08;;;;;;;11.25;9.15;;;38.20;26.10;;;;;;6250927;28;20218;-64
2021/10/11 12:08:14;;;;;;;12.45;9.55;;;39.20;24.80;;;;;;6251111;28;20231;-67
2021/10/11 12:11:20;;;;;;;10.75;9.40;;;38.20;24.80;;;;;;6250729;28;20242;-66
2021/10/11 12:14:27;;;;;;;10.00;9.00;;;37.40;25.10;;;;;;6250667;28;20223;-65
2021/10/11 12:17:34;;;;;;;9.18;8.13;;;37.50;25.20;;;;;;6250099;28;20319;-65
2021/10/11 12:20:46;;;;;;;10.05;8.13;;;37.60;24.80;;;;;;6250081;28;20251;-66
2021/10/11 12:23:52;;;;;;;8.18;7.38;;;39.40;24.60;;;;;;6250480;28;20238;-65
2021/10/11 12:26:56;;;;;;;8.82;8.00;;;39.30;22.80;;;;;;6249351;28;20239;-65
2021/10/11 12:30:01;;;;;;;8.18;7.45;;;38.70;23.30;;;;;;6249712;28;20706;-66
2021/10/11 12:33:11;;;;;;;8.90;8.20;;;39.60;23.30;;;;;;6245325;28;20250;-66
2021/10/11 12:36:14;;;;;;;9.93;8.93;;;40.10;22.90;;;;;;6243689;28;20243;-66
2021/10/11 12:39:19;;;;;;;9.07;8.30;;;40.10;22.40;;;;;;6247676;28;20235;-66
2021/10/11 12:42:25;;;;;;;9.93;8.25;;;39.90;22.40;;;;;;6249666;28;20239;-65
2021/10/11 12:45:28;;;;;;;9.63;8.73;;;40.50;21.80;;;;;;6232986;28;20576;-65
2021/10/11 12:48:31;;;;;;;9.85;8.30;;;41.20;22.00;;;;;;6225487;28;20236;-64
2021/10/11 12:51:36;;;;;;;8.95;8.23;;;41.50;21.80;;;;;;6225282;28;20572;-64
2021/10/11 12:54:40;;;;;;;9.05;8.35;;;41.10;21.60;;;;;;6243568;28;20228;-66
2021/10/11 12:57:46;;;;;;;8.55;7.75;;;41.40;21.40;;;;;;6251130;28;20227;-65
2021/10/11 13:00:49;;;;;;;8.32;7.53;;;42.40;21.20;;;;;;6249418;28;20236;-65
2021/10/11 13:03:53;;;;;;;9.13;8.32;;;43.00;20.50;;;;;;6249844;28;20227;-65
2021/10/11 13:06:56;;;;;;;9.30;8.40;;;42.30;20.50;;;;;;6249683;28;20243;-66
2021/10/11 13:10:01;;;;;;;13.80;7.82;;;42.10;21.00;;;;;;6249350;28;20227;-65
2021/10/11 13:13:04;;;;;;;10.77;8.50;;;42.70;20.70;;;;;;6249056;28;20244;-65
2021/10/11 13:16:08;;;;;;;9.02;8.13;;;42.50;21.20;;;;;;6249341;28;20231;-66
2021/10/11 13:19:11;;;;;;;9.07;8.25;;;42.20;20.80;;;;;;6249826;28;20238;-65
2021/10/11 13:22:15;;;;;;;9.30;8.35;;;42.10;20.90;;;;;;6249440;28;20228;-64
2021/10/11 13:25:19;;;;;;;9.25;8.35;;;40.60;21.70;;;;;;6249295;28;20227;-63
2021/10/11 13:28:22;;;;;;;12.15;8.77;;;39.70;22.50;;;;;;6249049;28;20680;-64
2021/10/11 14:28:27;;;;;;;9.53;8.63;;;19.30;56.70;;;;;;6252357;28;20228;-63
2021/10/11 14:31:44;;;;;;;9.47;8.57;;;19.10;57.50;;;;;;6252841;28;20574;-65
2021/10/11 15:51:44;;;;;;;9.17;8.10;;;19.00;58.10;;;;;;6252790;28;20228;-65
2021/10/11 15:59:00;;;;;;;11.97;8.30;;;15.40;88.00;;;;;;6251033;28;20478;-64
2021/10/11 16:02:05;;;;;;;8.30;7.37;;;15.40;88.10;;;;;;6234807;28;20468;-65
2021/10/11 16:05:11;;;;;;;9.67;8.07;;;15.40;88.90;;;;;;6227051;28;20876;-64
2021/10/11 16:08:14;;;;;;;8.43;7.27;;;15.20;90.20;;;;;;6226833;28;20483;-64
2021/10/11 16:11:19;;;;;;;9.27;8.20;;;15.10;90.60;;;;;;6247917;28;20485;-64
2021/10/11 16:14:22;;;;;;;10.37;9.13;;;15.00;91.30;;;;;;6250726;28;20970;-64
2021/10/11 16:17:25;;;;;;;11.10;9.43;;;14.80;92.00;;;;;;6251045;28;20473;-64
2021/10/11 16:20:28;;;;;;;10.00;9.00;;;14.70;92.80;;;;;;6250520;28;20963;-65
2021/10/11 16:23:33;;;;;;;10.53;8.50;;;14.70;93.30;;;;;;6250061;28;20459;-65
2021/10/11 16:26:42;;;;;;;9.73;8.80;;;14.60;93.50;;;;;;6241398;28;20967;-65
2021/10/11 16:29:45;;;;;;;11.63;10.30;;;14.50;94.00;;;;;;6225168;28;20812;-65
2021/10/11 16:32:48;;;;;;;9.57;8.43;;;14.40;94.30;;;;;;6225829;28;20491;-66
2021/10/11 16:35:51;;;;;;;9.70;8.70;;;14.30;94.80;;;;;;6225762;28;20479;-66
2021/10/11 16:38:54;;;;;;;10.80;9.70;;;14.30;95.20;;;;;;6244439;28;20478;-65
2021/10/11 16:42:01;;;;;;;10.50;9.40;;;14.20;95.60;;;;;;6249417;28;20474;-65
2021/10/11 16:45:06;;;;;;;10.80;9.60;;;14.20;96.00;;;;;;6258164;28;20477;-64
2021/10/11 16:48:09;;;;;;;13.93;9.27;;;14.10;96.30;;;;;;6250569;28;20486;-66
2021/10/11 16:51:14;;;;;;;9.97;8.90;;;14.00;96.80;;;;;;6267842;28;20474;-65
2021/10/11 16:54:21;;;;;;;10.07;9.17;;;14.00;97.10;;;;;;6258224;28;20994;-65
2021/10/11 16:57:26;;;;;;;12.70;10.13;;;14.00;97.50;;;;;;6249196;28;20470;-65
2021/10/11 17:00:29;;;;;;;12.77;10.90;;;13.90;97.70;;;;;;6243547;28;20848;-64
2021/10/11 17:03:32;;;;;;;12.87;10.03;;;13.90;98.00;;;;;;6224784;28;20468;-65
2021/10/11 17:06:37;;;;;;;14.00;12.57;;;13.90;98.30;;;;;;6225093;28;20784;-65
2021/10/11 17:09:40;;;;;;;13.33;12.07;;;13.80;98.50;;;;;;6224546;28;20480;-66
2021/10/11 17:12:45;;;;;;;15.53;12.70;;;13.80;98.70;;;;;;6226977;28;20483;-65
2021/10/11 17:15:49;;;;;;;14.13;12.20;;;13.70;99.10;;;;;;6229570;28;20479;-65
2021/10/11 17:19:12;;;;;;;15.03;12.03;;;13.70;99.40;;;;;;6229618;28;20546;-66
2021/10/11 17:22:15;;;;;;;16.93;13.90;;;13.60;99.50;;;;;;6228874;28;20977;-65
2021/10/11 17:25:19;;;;;;;14.73;13.00;;;13.50;99.80;;;;;;6229841;28;20478;-65
2021/10/11 17:28:23;;;;;;;15.07;12.47;;;13.50;99.90;;;;;;6228735;28;20478;-64
2021/10/11 17:31:27;;;;;;;14.17;12.80;;;13.40;99.90;;;;;;6227478;28;20498;-66
2021/10/11 17:34:31;;;;;;;25.27;12.90;;;13.30;99.90;;;;;;6227241;28;21175;-65
2021/10/11 17:37:34;;;;;;;13.50;11.83;;;13.30;99.90;;;;;;6235363;28;20475;-65
2021/10/11 17:40:37;;;;;;;18.00;14.60;;;13.30;99.90;;;;;;6252539;28;20478;-65
2021/10/11 17:43:42;;;;;;;19.63;16.13;;;13.20;99.90;;;;;;6249627;28;20485;-65
2021/10/11 17:46:45;;;;;;;18.23;14.97;;;13.10;99.90;;;;;;6228268;28;20479;-65
2021/10/11 17:49:50;;;;;;;19.23;15.00;;;13.00;99.90;;;;;;6228267;28;20558;-66
2021/10/11 17:52:55;;;;;;;17.97;14.57;;;13.00;99.90;;;;;;6229315;28;20960;-65
2021/10/11 17:56:00;;;;;;;15.20;13.57;;;12.90;99.90;;;;;;6229230;28;20452;-66
2021/10/11 17:59:06;;;;;;;13.87;12.57;;;12.80;99.90;;;;;;6228632;28;20448;-67
2021/10/11 18:02:10;;;;;;;14.73;12.20;;;12.80;99.90;;;;;;6229224;28;20460;-65
2021/10/11 18:05:13;;;;;;;14.57;12.97;;;12.80;99.90;;;;;;6228828;28;20469;-65
2021/10/11 18:08:17;;;;;;;13.17;11.87;;;12.80;99.90;;;;;;6229732;28;20549;-66
2021/10/11 18:11:20;;;;;;;12.97;11.53;;;12.70;99.90;;;;;;6241290;28;20590;-64